sensor_id;sensor_type;location;lat;lon;timestamp;temperature;humidity
40556;DHT22;26250;45.422;11.100;2024-02-28T00:02:23;11.20;99.90
40556;DHT22;26250;45.422;11.100;2024-02-28T00:04:50;11.30;99.90
40556;DHT22;26250;45.422;11.100;2024-02-28T00:07:17;11.20;99.90
40556;DHT22;26250;45.422;11.100;2024-02-28T00:09:45;11.30;99.90
40556;DHT22;26250;45.422;11.100;2024-02-28T00:12:12;11.30;99.90
40556;DHT22;26250;45.422;11.100;2024-02-28T00:14:39;11.30;99.90
40556;DHT22;26250;45.422;11.100;2024-02-28T00:17:06;11.30;99.90
40556;DHT22;26250;45.422;11.100;2024-02-28T00:19:33;11.20;99.90
40556;DHT22;26250;45.422;11.100;2024-02-28T00:22:00;11.10;99.90
40556;DHT22;26250;45.422;11.100;2024-02-28T00:24:28;11.10;99.90
40556;DHT22;26250;45.422;11.100;2024-02-28T00:26:56;11.20;99.90
40556;DHT22;26250;45.422;11.100;2024-02-28T00:29:23;11.30;99.90
40556;DHT22;26250;45.422;11.100;2024-02-28T00:31:50;11.20;99.90
40556;DHT22;26250;45.422;11.100;2024-02-28T00:34:18;11.10;99.90
40556;DHT22;26250;45.422;11.100;2024-02-28T00:36:45;11.20;99.90
40556;DHT22;26250;45.422;11.100;2024-02-28T00:39:22;11.10;99.90
40556;DHT22;26250;45.422;11.100;2024-02-28T00:41:49;11.20;99.90
40556;DHT22;26250;45.422;11.100;2024-02-28T00:44:16;11.30;99.90
40556;DHT22;26250;45.422;11.100;2024-02-28T00:46:43;11.20;99.90
40556;DHT22;26250;45.422;11.100;2024-02-28T00:49:10;11.10;99.90
40556;DHT22;26250;45.422;11.100;2024-02-28T00:51:37;11.40;99.90
40556;DHT22;26250;45.422;11.100;2024-02-28T00:54:05;11.20;99.90
40556;DHT22;26250;45.422;11.100;2024-02-28T00:56:32;11.40;99.90
40556;DHT22;26250;45.422;11.100;2024-02-28T00:58:59;11.40;99.90
40556;DHT22;26250;45.422;11.100;2024-02-28T01:01:26;11.20;99.90
40556;DHT22;26250;45.422;11.100;2024-02-28T01:03:53;11.40;99.90
40556;DHT22;26250;45.422;11.100;2024-02-28T01:06:20;11.50;99.90
40556;DHT22;26250;45.422;11.100;2024-02-28T01:08:47;11.30;99.90
40556;DHT22;26250;45.422;11.100;2024-02-28T01:11:15;11.30;99.90
40556;DHT22;26250;45.422;11.100;2024-02-28T01:13:42;11.40;99.90
40556;DHT22;26250;45.422;11.100;2024-02-28T01:16:09;11.50;99.90
40556;DHT22;26250;45.422;11.100;2024-02-28T01:18:36;11.70;99.90
40556;DHT22;26250;45.422;11.100;2024-02-28T01:21:03;11.00;99.90
40556;DHT22;26250;45.422;11.100;2024-02-28T01:23:30;11.60;99.90
40556;DHT22;26250;45.422;11.100;2024-02-28T01:25:58;11.30;99.90
40556;DHT22;26250;45.422;11.100;2024-02-28T01:28:25;11.30;99.90
40556;DHT22;26250;45.422;11.100;2024-02-28T01:30:52;11.50;99.90
40556;DHT22;26250;45.422;11.100;2024-02-28T01:33:19;11.10;99.90
40556;DHT22;26250;45.422;11.100;2024-02-28T01:35:47;11.10;99.90
40556;DHT22;26250;45.422;11.100;2024-02-28T01:38:14;11.30;99.90
40556;DHT22;26250;45.422;11.100;2024-02-28T01:40:45;11.60;99.90
40556;DHT22;26250;45.422;11.100;2024-02-28T01:43:13;11.10;99.90
40556;DHT22;26250;45.422;11.100;2024-02-28T01:45:40;11.10;99.90
40556;DHT22;26250;45.422;11.100;2024-02-28T01:48:09;11.20;99.90
40556;DHT22;26250;45.422;11.100;2024-02-28T01:50:37;11.30;99.90
40556;DHT22;26250;45.422;11.100;2024-02-28T01:53:06;11.30;99.90
40556;DHT22;26250;45.422;11.100;2024-02-28T01:55:36;11.10;99.90
40556;DHT22;26250;45.422;11.100;2024-02-28T01:58:04;11.10;99.90
40556;DHT22;26250;45.422;11.100;2024-02-28T02:00:34;11.50;99.90
40556;DHT22;26250;45.422;11.100;2024-02-28T02:03:01;11.40;99.90
40556;DHT22;26250;45.422;11.100;2024-02-28T02:05:29;11.50;99.90
40556;DHT22;26250;45.422;11.100;2024-02-28T02:08:00;11.10;99.90
40556;DHT22;26250;45.422;11.100;2024-02-28T02:10:28;11.50;99.90
40556;DHT22;26250;45.422;11.100;2024-02-28T02:12:55;11.50;99.90
40556;DHT22;26250;45.422;11.100;2024-02-28T02:15:25;11.30;99.90
40556;DHT22;26250;45.422;11.100;2024-02-28T02:17:52;11.40;99.90
40556;DHT22;26250;45.422;11.100;2024-02-28T02:20:21;11.50;99.90
40556;DHT22;26250;45.422;11.100;2024-02-28T02:22:49;11.70;99.90
40556;DHT22;26250;45.422;11.100;2024-02-28T02:25:16;11.70;99.90
40556;DHT22;26250;45.422;11.100;2024-02-28T02:27:43;11.50;99.90
40556;DHT22;26250;45.422;11.100;2024-02-28T02:30:11;11.50;99.90
40556;DHT22;26250;45.422;11.100;2024-02-28T02:32:38;11.60;99.90
40556;DHT22;26250;45.422;11.100;2024-02-28T02:35:06;11.60;99.90
40556;DHT22;26250;45.422;11.100;2024-02-28T02:37:33;11.80;99.90
40556;DHT22;26250;45.422;11.100;2024-02-28T02:40:01;11.80;99.90
40556;DHT22;26250;45.422;11.100;2024-02-28T02:42:28;11.80;99.90
40556;DHT22;26250;45.422;11.100;2024-02-28T02:44:55;11.80;99.90
40556;DHT22;26250;45.422;11.100;2024-02-28T02:47:22;11.80;99.90
40556;DHT22;26250;45.422;11.100;2024-02-28T02:49:50;11.90;99.90
40556;DHT22;26250;45.422;11.100;2024-02-28T02:52:17;11.90;99.90
40556;DHT22;26250;45.422;11.100;2024-02-28T02:54:44;11.90;99.90
40556;DHT22;26250;45.422;11.100;2024-02-28T02:57:11;11.90;99.90
40556;DHT22;26250;45.422;11.100;2024-02-28T02:59:38;11.90;99.90
40556;DHT22;26250;45.422;11.100;2024-02-28T03:02:05;11.90;99.90
40556;DHT22;26250;45.422;11.100;2024-02-28T03:04:32;11.90;99.90
40556;DHT22;26250;45.422;11.100;2024-02-28T03:07:00;11.90;99.90
40556;DHT22;26250;45.422;11.100;2024-02-28T03:09:27;12.00;99.90
40556;DHT22;26250;45.422;11.100;2024-02-28T03:11:54;11.90;99.90
40556;DHT22;26250;45.422;11.100;2024-02-28T03:14:21;12.00;99.90
40556;DHT22;26250;45.422;11.100;2024-02-28T03:16:49;12.10;99.90
40556;DHT22;26250;45.422;11.100;2024-02-28T03:19:17;12.00;99.90
40556;DHT22;26250;45.422;11.100;2024-02-28T03:21:45;12.00;99.90
40556;DHT22;26250;45.422;11.100;2024-02-28T03:24:12;12.00;99.90
40556;DHT22;26250;45.422;11.100;2024-02-28T03:26:39;12.10;99.90
40556;DHT22;26250;45.422;11.100;2024-02-28T03:29:06;12.10;99.90
40556;DHT22;26250;45.422;11.100;2024-02-28T03:31:33;12.00;99.90
40556;DHT22;26250;45.422;11.100;2024-02-28T03:34:00;12.00;99.90
40556;DHT22;26250;45.422;11.100;2024-02-28T03:36:28;12.00;99.90
40556;DHT22;26250;45.422;11.100;2024-02-28T03:38:55;12.00;99.90
40556;DHT22;26250;45.422;11.100;2024-02-28T03:41:22;12.10;99.90
40556;DHT22;26250;45.422;11.100;2024-02-28T03:43:49;12.00;99.90
40556;DHT22;26250;45.422;11.100;2024-02-28T03:46:16;12.00;99.90
40556;DHT22;26250;45.422;11.100;2024-02-28T03:48:43;12.00;99.90
40556;DHT22;26250;45.422;11.100;2024-02-28T03:51:10;12.10;99.90
40556;DHT22;26250;45.422;11.100;2024-02-28T03:53:37;12.10;99.90
40556;DHT22;26250;45.422;11.100;2024-02-28T03:56:04;12.00;99.90
40556;DHT22;26250;45.422;11.100;2024-02-28T03:58:31;12.10;99.90
40556;DHT22;26250;45.422;11.100;2024-02-28T04:00:58;12.10;99.90
40556;DHT22;26250;45.422;11.100;2024-02-28T04:03:25;12.10;99.90
40556;DHT22;26250;45.422;11.100;2024-02-28T04:05:53;12.10;99.90
40556;DHT22;26250;45.422;11.100;2024-02-28T04:08:20;12.20;99.90
40556;DHT22;26250;45.422;11.100;2024-02-28T04:10:47;12.20;99.90
40556;DHT22;26250;45.422;11.100;2024-02-28T04:13:16;12.20;99.90
40556;DHT22;26250;45.422;11.100;2024-02-28T04:15:44;12.20;99.90
40556;DHT22;26250;45.422;11.100;2024-02-28T04:18:12;12.20;99.90
40556;DHT22;26250;45.422;11.100;2024-02-28T04:20:40;12.20;99.90
40556;DHT22;26250;45.422;11.100;2024-02-28T04:23:07;12.30;99.90
40556;DHT22;26250;45.422;11.100;2024-02-28T04:25:33;12.30;99.90
40556;DHT22;26250;45.422;11.100;2024-02-28T04:28:01;12.40;99.90
40556;DHT22;26250;45.422;11.100;2024-02-28T04:30:28;12.50;99.90
40556;DHT22;26250;45.422;11.100;2024-02-28T04:32:55;12.50;99.90
40556;DHT22;26250;45.422;11.100;2024-02-28T04:35:22;12.30;99.90
40556;DHT22;26250;45.422;11.100;2024-02-28T04:37:50;12.30;99.90
40556;DHT22;26250;45.422;11.100;2024-02-28T04:40:17;12.30;99.90
40556;DHT22;26250;45.422;11.100;2024-02-28T04:42:44;12.40;99.90
40556;DHT22;26250;45.422;11.100;2024-02-28T04:45:11;12.40;99.90
40556;DHT22;26250;45.422;11.100;2024-02-28T04:47:38;12.40;99.90
40556;DHT22;26250;45.422;11.100;2024-02-28T04:50:11;12.40;99.90
40556;DHT22;26250;45.422;11.100;2024-02-28T04:52:39;12.50;99.90
40556;DHT22;26250;45.422;11.100;2024-02-28T04:55:06;12.50;99.90
40556;DHT22;26250;45.422;11.100;2024-02-28T04:57:33;12.50;99.90
40556;DHT22;26250;45.422;11.100;2024-02-28T05:00:00;12.50;99.90
40556;DHT22;26250;45.422;11.100;2024-02-28T05:02:27;12.50;99.90
40556;DHT22;26250;45.422;11.100;2024-02-28T05:04:54;12.50;99.90
40556;DHT22;26250;45.422;11.100;2024-02-28T05:07:21;12.40;99.90
40556;DHT22;26250;45.422;11.100;2024-02-28T05:09:49;12.40;99.90
40556;DHT22;26250;45.422;11.100;2024-02-28T05:12:16;12.40;99.90
40556;DHT22;26250;45.422;11.100;2024-02-28T05:14:43;12.40;99.90
40556;DHT22;26250;45.422;11.100;2024-02-28T05:17:10;12.50;99.90
40556;DHT22;26250;45.422;11.100;2024-02-28T05:19:37;12.50;99.90
40556;DHT22;26250;45.422;11.100;2024-02-28T05:22:05;12.50;99.90
40556;DHT22;26250;45.422;11.100;2024-02-28T05:24:33;12.50;99.90
40556;DHT22;26250;45.422;11.100;2024-02-28T05:27:00;12.50;99.90
40556;DHT22;26250;45.422;11.100;2024-02-28T05:29:27;12.60;99.90
40556;DHT22;26250;45.422;11.100;2024-02-28T05:31:54;12.50;99.90
40556;DHT22;26250;45.422;11.100;2024-02-28T05:34:21;12.50;99.90
40556;DHT22;26250;45.422;11.100;2024-02-28T05:36:48;12.40;99.90
40556;DHT22;26250;45.422;11.100;2024-02-28T05:39:17;12.50;99.90
40556;DHT22;26250;45.422;11.100;2024-02-28T05:41:44;12.40;99.90
40556;DHT22;26250;45.422;11.100;2024-02-28T05:44:11;12.40;99.90
40556;DHT22;26250;45.422;11.100;2024-02-28T05:46:38;12.40;99.90
40556;DHT22;26250;45.422;11.100;2024-02-28T05:49:05;12.60;99.90
40556;DHT22;26250;45.422;11.100;2024-02-28T05:51:32;12.50;99.90
40556;DHT22;26250;45.422;11.100;2024-02-28T05:53:59;12.50;99.90
40556;DHT22;26250;45.422;11.100;2024-02-28T05:56:26;12.50;99.90
40556;DHT22;26250;45.422;11.100;2024-02-28T05:58:53;12.60;99.90
40556;DHT22;26250;45.422;11.100;2024-02-28T06:01:20;12.60;99.90
40556;DHT22;26250;45.422;11.100;2024-02-28T06:03:50;12.50;99.90
40556;DHT22;26250;45.422;11.100;2024-02-28T06:06:18;12.50;99.90
40556;DHT22;26250;45.422;11.100;2024-02-28T06:08:45;12.60;99.90
40556;DHT22;26250;45.422;11.100;2024-02-28T06:11:12;12.60;99.90
40556;DHT22;26250;45.422;11.100;2024-02-28T06:13:42;12.70;99.90
40556;DHT22;26250;45.422;11.100;2024-02-28T06:16:15;12.70;99.90
40556;DHT22;26250;45.422;11.100;2024-02-28T06:18:43;12.70;99.90
40556;DHT22;26250;45.422;11.100;2024-02-28T06:21:10;12.90;99.90
40556;DHT22;26250;45.422;11.100;2024-02-28T06:23:37;12.80;99.90
40556;DHT22;26250;45.422;11.100;2024-02-28T06:26:04;12.90;99.90
40556;DHT22;26250;45.422;11.100;2024-02-28T06:28:31;12.80;99.90
40556;DHT22;26250;45.422;11.100;2024-02-28T06:30:59;12.80;99.90
40556;DHT22;26250;45.422;11.100;2024-02-28T06:33:26;12.80;99.90
40556;DHT22;26250;45.422;11.100;2024-02-28T06:35:53;12.90;99.90
40556;DHT22;26250;45.422;11.100;2024-02-28T06:38:20;12.90;99.90
40556;DHT22;26250;45.422;11.100;2024-02-28T06:40:47;13.00;99.90
40556;DHT22;26250;45.422;11.100;2024-02-28T06:43:14;13.00;99.90
40556;DHT22;26250;45.422;11.100;2024-02-28T06:45:42;13.00;99.90
40556;DHT22;26250;45.422;11.100;2024-02-28T06:48:09;13.00;99.90
40556;DHT22;26250;45.422;11.100;2024-02-28T06:50:36;13.10;99.90
40556;DHT22;26250;45.422;11.100;2024-02-28T06:53:03;13.10;99.90
40556;DHT22;26250;45.422;11.100;2024-02-28T06:55:31;13.10;99.90
40556;DHT22;26250;45.422;11.100;2024-02-28T06:57:58;13.10;99.90
40556;DHT22;26250;45.422;11.100;2024-02-28T07:00:25;13.20;99.90
40556;DHT22;26250;45.422;11.100;2024-02-28T07:02:52;13.20;99.90
40556;DHT22;26250;45.422;11.100;2024-02-28T07:05:20;13.10;99.90
40556;DHT22;26250;45.422;11.100;2024-02-28T07:07:47;13.10;99.90
40556;DHT22;26250;45.422;11.100;2024-02-28T07:10:14;13.20;99.90
40556;DHT22;26250;45.422;11.100;2024-02-28T07:12:41;13.30;99.90
40556;DHT22;26250;45.422;11.100;2024-02-28T07:15:08;13.20;99.90
40556;DHT22;26250;45.422;11.100;2024-02-28T07:17:36;13.20;99.90
40556;DHT22;26250;45.422;11.100;2024-02-28T07:20:03;13.30;99.90
40556;DHT22;26250;45.422;11.100;2024-02-28T07:22:30;13.30;99.90
40556;DHT22;26250;45.422;11.100;2024-02-28T07:24:57;13.20;99.90
40556;DHT22;26250;45.422;11.100;2024-02-28T07:27:24;13.30;99.90
40556;DHT22;26250;45.422;11.100;2024-02-28T07:29:52;13.20;99.90
40556;DHT22;26250;45.422;11.100;2024-02-28T07:32:19;13.40;99.90
40556;DHT22;26250;45.422;11.100;2024-02-28T07:34:46;13.30;99.90
40556;DHT22;26250;45.422;11.100;2024-02-28T07:37:13;13.30;99.90
40556;DHT22;26250;45.422;11.100;2024-02-28T07:39:40;13.40;99.90
40556;DHT22;26250;45.422;11.100;2024-02-28T07:42:07;13.40;99.90
40556;DHT22;26250;45.422;11.100;2024-02-28T07:44:34;13.50;99.90
40556;DHT22;26250;45.422;11.100;2024-02-28T07:47:01;13.50;99.90
40556;DHT22;26250;45.422;11.100;2024-02-28T07:49:27;13.60;99.90
40556;DHT22;26250;45.422;11.100;2024-02-28T07:51:55;13.60;99.90
40556;DHT22;26250;45.422;11.100;2024-02-28T07:54:22;13.60;99.90
40556;DHT22;26250;45.422;11.100;2024-02-28T07:56:50;13.70;99.90
40556;DHT22;26250;45.422;11.100;2024-02-28T07:59:18;13.70;99.90
40556;DHT22;26250;45.422;11.100;2024-02-28T08:01:45;13.70;99.90
40556;DHT22;26250;45.422;11.100;2024-02-28T08:04:13;13.60;99.90
40556;DHT22;26250;45.422;11.100;2024-02-28T08:06:40;13.70;99.90
40556;DHT22;26250;45.422;11.100;2024-02-28T08:09:08;13.70;99.90
40556;DHT22;26250;45.422;11.100;2024-02-28T08:11:39;13.70;99.90
40556;DHT22;26250;45.422;11.100;2024-02-28T08:14:06;13.80;99.90
40556;DHT22;26250;45.422;11.100;2024-02-28T08:16:34;13.80;99.90
40556;DHT22;26250;45.422;11.100;2024-02-28T08:19:01;13.80;99.90
40556;DHT22;26250;45.422;11.100;2024-02-28T08:21:28;13.80;99.90
40556;DHT22;26250;45.422;11.100;2024-02-28T08:23:56;13.90;99.90
40556;DHT22;26250;45.422;11.100;2024-02-28T08:26:25;13.90;99.90
40556;DHT22;26250;45.422;11.100;2024-02-28T08:28:52;13.90;99.90
40556;DHT22;26250;45.422;11.100;2024-02-28T08:31:19;14.00;99.90
40556;DHT22;26250;45.422;11.100;2024-02-28T08:33:46;14.00;99.90
40556;DHT22;26250;45.422;11.100;2024-02-28T08:36:13;14.10;99.90
40556;DHT22;26250;45.422;11.100;2024-02-28T08:38:41;14.10;99.90
40556;DHT22;26250;45.422;11.100;2024-02-28T08:41:08;14.10;99.90
40556;DHT22;26250;45.422;11.100;2024-02-28T08:43:39;14.10;99.90
40556;DHT22;26250;45.422;11.100;2024-02-28T08:46:07;14.20;99.90
40556;DHT22;26250;45.422;11.100;2024-02-28T08:48:34;14.20;99.90
40556;DHT22;26250;45.422;11.100;2024-02-28T08:51:02;14.30;99.90
40556;DHT22;26250;45.422;11.100;2024-02-28T08:53:29;14.30;99.90
40556;DHT22;26250;45.422;11.100;2024-02-28T08:55:56;14.40;99.90
40556;DHT22;26250;45.422;11.100;2024-02-28T08:58:23;14.50;99.90
40556;DHT22;26250;45.422;11.100;2024-02-28T09:00:50;14.50;99.90
40556;DHT22;26250;45.422;11.100;2024-02-28T09:03:18;14.50;99.90
40556;DHT22;26250;45.422;11.100;2024-02-28T09:05:46;14.60;99.90
40556;DHT22;26250;45.422;11.100;2024-02-28T09:08:14;14.60;99.90
40556;DHT22;26250;45.422;11.100;2024-02-28T09:10:41;14.70;99.90
40556;DHT22;26250;45.422;11.100;2024-02-28T09:13:08;14.70;99.90
40556;DHT22;26250;45.422;11.100;2024-02-28T09:15:37;14.60;99.90
40556;DHT22;26250;45.422;11.100;2024-02-28T09:18:04;14.60;99.90
40556;DHT22;26250;45.422;11.100;2024-02-28T09:20:31;14.70;99.90
40556;DHT22;26250;45.422;11.100;2024-02-28T09:22:59;14.80;99.90
40556;DHT22;26250;45.422;11.100;2024-02-28T09:25:32;14.80;99.90
40556;DHT22;26250;45.422;11.100;2024-02-28T09:28:12;15.00;99.90
40556;DHT22;26250;45.422;11.100;2024-02-28T09:31:03;15.00;99.90
40556;DHT22;26250;45.422;11.100;2024-02-28T09:33:45;15.00;99.90
40556;DHT22;26250;45.422;11.100;2024-02-28T09:36:20;15.10;99.90
40556;DHT22;26250;45.422;11.100;2024-02-28T09:39:21;14.90;99.90
40556;DHT22;26250;45.422;11.100;2024-02-28T09:42:07;14.80;99.90
40556;DHT22;26250;45.422;11.100;2024-02-28T09:45:00;14.90;99.90
40556;DHT22;26250;45.422;11.100;2024-02-28T09:47:28;14.90;99.90
40556;DHT22;26250;45.422;11.100;2024-02-28T09:50:20;14.90;99.90
40556;DHT22;26250;45.422;11.100;2024-02-28T09:52:58;14.90;99.90
40556;DHT22;26250;45.422;11.100;2024-02-28T09:55:51;14.90;99.90
40556;DHT22;26250;45.422;11.100;2024-02-28T09:58:56;14.80;99.90
40556;DHT22;26250;45.422;11.100;2024-02-28T10:01:26;14.70;99.90
40556;DHT22;26250;45.422;11.100;2024-02-28T10:03:55;14.60;99.90
40556;DHT22;26250;45.422;11.100;2024-02-28T10:06:23;14.50;99.90
40556;DHT22;26250;45.422;11.100;2024-02-28T10:08:50;14.30;99.90
40556;DHT22;26250;45.422;11.100;2024-02-28T10:11:19;14.00;99.90
40556;DHT22;26250;45.422;11.100;2024-02-28T10:13:52;13.70;99.90
40556;DHT22;26250;45.422;11.100;2024-02-28T10:16:21;13.40;99.90
40556;DHT22;26250;45.422;11.100;2024-02-28T10:18:50;13.30;99.90
40556;DHT22;26250;45.422;11.100;2024-02-28T10:21:18;12.90;99.90
40556;DHT22;26250;45.422;11.100;2024-02-28T10:23:58;12.60;99.90
40556;DHT22;26250;45.422;11.100;2024-02-28T10:26:45;12.40;99.90
40556;DHT22;26250;45.422;11.100;2024-02-28T10:29:30;12.50;99.90
40556;DHT22;26250;45.422;11.100;2024-02-28T10:32:05;12.60;99.90
40556;DHT22;26250;45.422;11.100;2024-02-28T10:34:43;12.80;99.90
40556;DHT22;26250;45.422;11.100;2024-02-28T10:37:40;13.00;99.90
40556;DHT22;26250;45.422;11.100;2024-02-28T10:40:08;13.40;99.90
40556;DHT22;26250;45.422;11.100;2024-02-28T10:42:36;13.50;99.90
40556;DHT22;26250;45.422;11.100;2024-02-28T10:45:04;13.50;99.90
40556;DHT22;26250;45.422;11.100;2024-02-28T10:47:50;13.60;99.90
40556;DHT22;26250;45.422;11.100;2024-02-28T10:50:17;13.80;99.90
40556;DHT22;26250;45.422;11.100;2024-02-28T10:52:44;13.80;99.90
40556;DHT22;26250;45.422;11.100;2024-02-28T10:55:21;13.80;99.90
40556;DHT22;26250;45.422;11.100;2024-02-28T10:58:11;13.90;99.90
40556;DHT22;26250;45.422;11.100;2024-02-28T11:00:41;13.80;99.90
40556;DHT22;26250;45.422;11.100;2024-02-28T11:03:16;13.80;99.90
40556;DHT22;26250;45.422;11.100;2024-02-28T11:05:44;13.70;99.90
40556;DHT22;26250;45.422;11.100;2024-02-28T11:08:26;13.60;99.90
40556;DHT22;26250;45.422;11.100;2024-02-28T11:11:13;13.50;99.90
40556;DHT22;26250;45.422;11.100;2024-02-28T11:14:06;13.60;99.90
40556;DHT22;26250;45.422;11.100;2024-02-28T11:17:07;13.60;99.90
40556;DHT22;26250;45.422;11.100;2024-02-28T11:19:47;13.60;99.90
40556;DHT22;26250;45.422;11.100;2024-02-28T11:22:58;13.60;99.90
40556;DHT22;26250;45.422;11.100;2024-02-28T11:25:41;13.70;99.90
40556;DHT22;26250;45.422;11.100;2024-02-28T11:28:21;13.80;99.90
40556;DHT22;26250;45.422;11.100;2024-02-28T11:31:04;13.80;99.90
40556;DHT22;26250;45.422;11.100;2024-02-28T11:34:11;13.90;99.90
40556;DHT22;26250;45.422;11.100;2024-02-28T11:36:52;13.80;99.90
40556;DHT22;26250;45.422;11.100;2024-02-28T11:39:29;13.70;99.90
40556;DHT22;26250;45.422;11.100;2024-02-28T11:42:13;13.80;99.90
40556;DHT22;26250;45.422;11.100;2024-02-28T11:44:57;13.80;99.90
40556;DHT22;26250;45.422;11.100;2024-02-28T11:47:28;13.90;99.90
40556;DHT22;26250;45.422;11.100;2024-02-28T11:49:58;13.90;99.90
40556;DHT22;26250;45.422;11.100;2024-02-28T11:52:40;13.80;99.90
40556;DHT22;26250;45.422;11.100;2024-02-28T11:55:07;13.70;99.90
40556;DHT22;26250;45.422;11.100;2024-02-28T11:57:34;13.70;99.90
40556;DHT22;26250;45.422;11.100;2024-02-28T12:00:07;13.70;99.90
40556;DHT22;26250;45.422;11.100;2024-02-28T12:02:36;13.80;99.90
40556;DHT22;26250;45.422;11.100;2024-02-28T12:05:03;13.80;99.90
40556;DHT22;26250;45.422;11.100;2024-02-28T12:07:31;13.80;99.90
40556;DHT22;26250;45.422;11.100;2024-02-28T12:10:00;13.70;99.90
40556;DHT22;26250;45.422;11.100;2024-02-28T12:12:27;13.60;99.90
40556;DHT22;26250;45.422;11.100;2024-02-28T12:14:59;13.60;99.90
40556;DHT22;26250;45.422;11.100;2024-02-28T12:17:27;13.40;99.90
40556;DHT22;26250;45.422;11.100;2024-02-28T12:19:53;13.30;99.90
40556;DHT22;26250;45.422;11.100;2024-02-28T12:22:22;13.30;99.90
40556;DHT22;26250;45.422;11.100;2024-02-28T12:24:49;13.40;99.90
40556;DHT22;26250;45.422;11.100;2024-02-28T12:27:16;13.50;99.90
40556;DHT22;26250;45.422;11.100;2024-02-28T12:29:43;13.50;99.90
40556;DHT22;26250;45.422;11.100;2024-02-28T12:32:10;13.60;99.90
40556;DHT22;26250;45.422;11.100;2024-02-28T12:34:38;13.60;99.90
40556;DHT22;26250;45.422;11.100;2024-02-28T12:37:05;13.70;99.90
40556;DHT22;26250;45.422;11.100;2024-02-28T12:39:33;13.70;99.90
40556;DHT22;26250;45.422;11.100;2024-02-28T12:42:01;13.70;99.90
40556;DHT22;26250;45.422;11.100;2024-02-28T12:44:28;13.80;99.90
40556;DHT22;26250;45.422;11.100;2024-02-28T12:46:55;14.00;99.90
40556;DHT22;26250;45.422;11.100;2024-02-28T12:49:22;14.10;99.90
40556;DHT22;26250;45.422;11.100;2024-02-28T12:51:49;14.00;99.90
40556;DHT22;26250;45.422;11.100;2024-02-28T12:54:16;14.00;99.90
40556;DHT22;26250;45.422;11.100;2024-02-28T12:56:43;14.20;99.90
40556;DHT22;26250;45.422;11.100;2024-02-28T12:59:10;14.20;99.90
40556;DHT22;26250;45.422;11.100;2024-02-28T13:01:38;14.30;99.90
40556;DHT22;26250;45.422;11.100;2024-02-28T13:04:05;14.50;99.90
40556;DHT22;26250;45.422;11.100;2024-02-28T13:06:32;14.70;99.90
40556;DHT22;26250;45.422;11.100;2024-02-28T13:08:59;14.80;99.90
40556;DHT22;26250;45.422;11.100;2024-02-28T13:11:26;14.80;99.90
40556;DHT22;26250;45.422;11.100;2024-02-28T13:13:53;14.40;99.90
40556;DHT22;26250;45.422;11.100;2024-02-28T13:16:21;14.20;99.90
40556;DHT22;26250;45.422;11.100;2024-02-28T13:18:50;14.20;99.90
40556;DHT22;26250;45.422;11.100;2024-02-28T13:21:17;14.10;99.90
40556;DHT22;26250;45.422;11.100;2024-02-28T13:23:44;14.00;99.90
40556;DHT22;26250;45.422;11.100;2024-02-28T13:26:11;13.90;99.90
40556;DHT22;26250;45.422;11.100;2024-02-28T13:28:45;13.60;99.90
40556;DHT22;26250;45.422;11.100;2024-02-28T13:31:16;13.00;99.90
40556;DHT22;26250;45.422;11.100;2024-02-28T13:33:44;12.80;99.90
40556;DHT22;26250;45.422;11.100;2024-02-28T13:36:11;12.70;99.90
40556;DHT22;26250;45.422;11.100;2024-02-28T13:38:39;12.80;99.90
40556;DHT22;26250;45.422;11.100;2024-02-28T13:41:06;12.70;99.90
40556;DHT22;26250;45.422;11.100;2024-02-28T13:43:33;12.70;99.90
40556;DHT22;26250;45.422;11.100;2024-02-28T13:46:00;12.80;99.90
40556;DHT22;26250;45.422;11.100;2024-02-28T13:48:28;12.80;99.90
40556;DHT22;26250;45.422;11.100;2024-02-28T13:50:55;13.00;99.90
40556;DHT22;26250;45.422;11.100;2024-02-28T13:53:22;13.10;99.90
40556;DHT22;26250;45.422;11.100;2024-02-28T13:55:51;13.10;99.90
40556;DHT22;26250;45.422;11.100;2024-02-28T13:58:18;13.20;99.90
40556;DHT22;26250;45.422;11.100;2024-02-28T14:00:46;13.40;99.90
40556;DHT22;26250;45.422;11.100;2024-02-28T14:03:14;13.40;99.90
40556;DHT22;26250;45.422;11.100;2024-02-28T14:05:41;13.40;99.90
40556;DHT22;26250;45.422;11.100;2024-02-28T14:08:08;13.50;99.90
40556;DHT22;26250;45.422;11.100;2024-02-28T14:10:37;13.60;99.90
40556;DHT22;26250;45.422;11.100;2024-02-28T14:13:04;13.50;99.90
40556;DHT22;26250;45.422;11.100;2024-02-28T14:15:34;13.50;99.90
40556;DHT22;26250;45.422;11.100;2024-02-28T14:18:04;13.60;99.90
40556;DHT22;26250;45.422;11.100;2024-02-28T14:20:31;13.60;99.90
40556;DHT22;26250;45.422;11.100;2024-02-28T14:22:58;13.70;99.90
40556;DHT22;26250;45.422;11.100;2024-02-28T14:25:25;13.80;99.90
40556;DHT22;26250;45.422;11.100;2024-02-28T14:27:52;13.70;99.90
40556;DHT22;26250;45.422;11.100;2024-02-28T14:30:23;14.10;99.90
40556;DHT22;26250;45.422;11.100;2024-02-28T14:32:51;14.00;99.90
40556;DHT22;26250;45.422;11.100;2024-02-28T14:35:19;14.10;99.90
40556;DHT22;26250;45.422;11.100;2024-02-28T14:37:46;14.20;99.90
40556;DHT22;26250;45.422;11.100;2024-02-28T14:40:13;14.30;99.90
40556;DHT22;26250;45.422;11.100;2024-02-28T14:42:41;14.30;99.90
40556;DHT22;26250;45.422;11.100;2024-02-28T14:45:10;14.20;99.90
40556;DHT22;26250;45.422;11.100;2024-02-28T14:47:41;14.20;99.90
40556;DHT22;26250;45.422;11.100;2024-02-28T14:50:10;14.30;99.90
40556;DHT22;26250;45.422;11.100;2024-02-28T14:52:40;14.40;99.90
40556;DHT22;26250;45.422;11.100;2024-02-28T14:55:09;14.30;99.90
40556;DHT22;26250;45.422;11.100;2024-02-28T14:57:39;14.20;99.90
40556;DHT22;26250;45.422;11.100;2024-02-28T15:00:11;14.10;99.90
40556;DHT22;26250;45.422;11.100;2024-02-28T15:02:42;14.10;99.90
40556;DHT22;26250;45.422;11.100;2024-02-28T15:05:11;14.20;99.90
40556;DHT22;26250;45.422;11.100;2024-02-28T15:07:38;14.10;99.90
40556;DHT22;26250;45.422;11.100;2024-02-28T15:10:06;14.30;99.90
40556;DHT22;26250;45.422;11.100;2024-02-28T15:12:34;14.40;99.90
40556;DHT22;26250;45.422;11.100;2024-02-28T15:15:05;14.40;99.90
40556;DHT22;26250;45.422;11.100;2024-02-28T15:17:33;14.20;99.90
40556;DHT22;26250;45.422;11.100;2024-02-28T15:20:01;14.40;99.90
40556;DHT22;26250;45.422;11.100;2024-02-28T15:22:35;14.30;99.90
40556;DHT22;26250;45.422;11.100;2024-02-28T15:25:02;14.50;99.90
40556;DHT22;26250;45.422;11.100;2024-02-28T15:32:06;14.50;99.90
40556;DHT22;26250;45.422;11.100;2024-02-28T15:34:59;14.50;99.90